Observations for BRIZE NORTON RA, United Kingdom (EGVN)

EGVN 130850Z 11012KT 9999 FEW018 BKN250 02/M00 Q1015 BLU TEMPO SCT020 WHT   
EGVN 130850Z 11012KT 9999 FEW018 BKN250 02/M00 Q1015 TEMPO SCT020
EGVN 130750Z 10008KT 9999 FEW020 BKN250 01/M00 Q1015 BLU TEMPO SCT020 WHT   
EGVN 130750Z 10008KT 9999 FEW020 BKN250 01/M00 Q1015 TEMPO SCT020
EGVN 130650Z 11009KT 9999 FEW030 BKN250 02/00 Q1015 TEMPO SCT020
EGVN 130650Z 11009KT 9999 FEW030 BKN250 02/00 Q1015 BLU TEMPO SCT020 WHT
EGVN 130550Z 11011KT 9999 FEW030 BKN300 02/00 Q1014 BLU TEMPO SCT020 WHT
EGVN 130550Z 11011KT 9999 FEW030 BKN300 02/00 Q1014 TEMPO SCT020
EGVN 130450Z 11010KT 9999 FEW016 BKN300 02/00 Q1014 TEMPO SCT016
EGVN 130450Z 11010KT 9999 FEW016 BKN300 02/00 Q1014 BLU TEMPO SCT016 WHT
EGVN 130350Z 12011KT 9999 FEW016 BKN300 02/00 Q1015 BLU TEMPO SCT016 WHT
EGVN 130350Z 12011KT 9999 FEW016 BKN300 02/00 Q1015 TEMPO SCT016
EGVN 130250Z 12013KT 9999 FEW036 BKN300 02/00 Q1015 BLU NOSIG   
EGVN 130250Z 12013KT 9999 FEW036 BKN300 02/00 Q1015 NOSIG
EGVN 130150Z 11010KT 9999 FEW036 BKN300 02/00 Q1016 NOSIG   
EGVN 130150Z 11010KT 9999 FEW036 BKN300 02/00 Q1016 BLU NOSIG
EGVN 130050Z 11009KT 9999 SCT036 SCT300 02/M01 Q1016 NOSIG  
EGVN 130050Z 11009KT 9999 SCT036 SCT300 02/M01 Q1016 BLU NOSIG
EGVN 122350Z 12010KT 9999 FEW036 SCT300 02/M00 Q1017 NOSIG  
EGVN 122350Z 12010KT 9999 FEW036 SCT300 02/M00 Q1017 BLU NOSIG
EGVN 122250Z 11008KT CAVOK 02/M01 Q1017 NOSIG   
EGVN 122250Z 11008KT CAVOK 02/M01 Q1017 BLU NOSIG
EGVN 122150Z 11007KT CAVOK 02/M02 Q1017 BLU NOSIG   
EGVN 122150Z 11007KT CAVOK 02/M02 Q1017 NOSIG
EGVN 122050Z 11009KT 9999 FEW035 SCT300 03/M02 Q1017 NOSIG  
EGVN 122050Z 11009KT 9999 FEW035 SCT300 03/M02 Q1017 BLU NOSIG
EGVN 121950Z 12009KT CAVOK 03/M01 Q1018 BLU NOSIG   
EGVN 121950Z 12009KT CAVOK 03/M01 Q1018 NOSIG
EGVN 121850Z 12008KT 9999 FEW032 03/M01 Q1019 NOSIG 
EGVN 121850Z 12008KT 9999 FEW032 03/M01 Q1019 BLU NOSIG
EGVN 121750Z 12011KT 9999 FEW032 04/M01 Q1019 BLU NOSIG 
EGVN 121750Z 12011KT 9999 FEW032 04/M01 Q1019 NOSIG
EGVN 121650Z 13009KT 9999 BKN032 05/00 Q1019 NOSIG  
EGVN 121650Z 13009KT 9999 BKN032 05/00 Q1019 BLU NOSIG
EGVN 121550Z 14012KT 9999 FEW022 BKN033 06/01 Q1019 BLU NOSIG   
EGVN 121550Z 14012KT 9999 FEW022 BKN033 06/01 Q1019 NOSIG
EGVN 121450Z 15010KT 9999 FEW022 BKN038 07/02 Q1019 BLU NOSIG   
EGVN 121450Z 15010KT 9999 FEW022 BKN038 07/02 Q1019 NOSIG
EGVN 121350Z 13009KT 9999 FEW018 SCT035 07/04 Q1019 NOSIG   
EGVN 121350Z 13009KT 9999 FEW018 SCT035 07/04 Q1019 BLU NOSIG
EGVN 121250Z 14010KT 9999 FEW018 BKN038 07/05 Q1020 NOSIG   
EGVN 121250Z 14010KT 9999 FEW018 BKN038 07/05 Q1020 BLU NOSIG
EGVN 121150Z 15010KT 9999 FEW012 BKN070 07/05 Q1021 BLU NOSIG   
EGVN 121150Z 15010KT 9999 FEW012 BKN070 07/05 Q1021 NOSIG
EGVN 121050Z 14007KT 9999 FEW012 SCT300 07/05 Q1021 TEMPO SCT015
EGVN 121050Z 14007KT 9999 FEW012 SCT300 07/05 Q1021 BLU TEMPO SCT015 WHT
EGVN 120950Z 13006KT 9999 SCT018 BKN300 06/05 Q1021 WHT TEMPO FEW018 BLU
EGVN 120950Z 13006KT 9999 SCT018 BKN300 06/05 Q1021 TEMPO FEW018
EGVN 120850Z 11005KT 8000 BR FEW050 BKN300 05/05 Q1021 NOSIG
EGVN 120850Z 11005KT 8000 BR FEW050 BKN300 05/05 Q1021 BLU NOSIG